Terminal Aerodrome Forecast
Issued by NWS

Home | Current Version | Previous Version | Text Only | Print | Product List | Glossary On
Versions: 1 2 3 4 5 6 7 8 9 10 11 12 13 14 15 16 17 18
152
FTUS45 KABQ 031319 AAA
TAFSAF
TAF AMD
KSAF 031319Z 0313/0412 36006KT P6SM SCT015 BKN070
      TEMPO 0313/0315 SCT008
     FM031900 30009KT P6SM FEW080 SCT100
     FM040000 35007KT P6SM SKC
     FM041000 36013KT P6SM SKC=

USA.gov is the U.S. government's official web portal to all federal, state and local government web resources and services.